Time;durP1;ratioP1;P1;durP2;ratioP2;P2;SDS_P1;SDS_P2;PMS_P1;PMS_P2;Temp;Humidity;BMP_temperature;BMP_pressure;BME280_temperature;BME280_humidity;BME280_pressure;Samples;Min_cycle;Max_cycle;Signal;HPM_P1;HPM_P2
2021/10/20 00:01:04;;;;;;;4.82;2.95;;;;;;;16.65;55.83;97376.94;4967700;28;20527;-83
2021/10/20 00:03:29;;;;;;;5.35;2.75;;;;;;;16.79;56.20;97377.84;4982844;28;20101;-82
2021/10/20 00:05:57;;;;;;;3.85;2.85;;;;;;;16.72;56.40;97380.00;4990810;28;20058;-82
2021/10/20 00:08:22;;;;;;;4.38;3.00;;;;;;;16.57;56.35;97370.44;5007123;28;20168;-83
2021/10/20 00:10:48;;;;;;;4.00;3.15;;;;;;;16.69;56.42;97380.59;5006844;28;20139;-83
2021/10/20 00:13:14;;;;;;;3.97;3.15;;;;;;;16.77;56.21;97368.66;4990366;28;20030;-83
2021/10/20 00:15:39;;;;;;;4.90;3.10;;;;;;;16.72;56.39;97360.81;5006877;28;20041;-82
2021/10/20 00:18:04;;;;;;;4.47;2.97;;;;;;;16.71;56.65;97362.69;5001245;28;20399;-83
2021/10/20 00:20:31;;;;;;;4.43;3.33;;;;;;;16.51;56.64;97347.88;4990312;28;20038;-82
2021/10/20 00:22:56;;;;;;;4.40;3.30;;;;;;;16.62;56.81;97348.56;4982173;28;20034;-82
2021/10/20 00:25:23;;;;;;;3.88;3.22;;;;;;;16.45;56.86;97339.28;4996680;28;20049;-82
2021/10/20 00:27:48;;;;;;;3.47;3.13;;;;;;;16.47;56.81;97345.03;4973962;28;20081;-82
2021/10/20 00:30:15;;;;;;;4.10;3.13;;;;;;;16.61;56.98;97339.91;4978283;28;20053;-82
2021/10/20 00:32:42;;;;;;;4.63;3.47;;;;;;;16.56;57.42;97347.06;4980471;28;20033;-82
2021/10/20 00:35:08;;;;;;;3.95;3.25;;;;;;;16.59;56.72;97346.50;4966421;28;20029;-82
2021/10/20 00:37:33;;;;;;;4.55;3.28;;;;;;;16.55;57.24;97343.63;4979562;28;20399;-81
2021/10/20 00:39:58;;;;;;;3.53;3.20;;;;;;;16.61;57.34;97337.28;4973540;28;20063;-82
2021/10/20 00:42:24;;;;;;;5.28;3.45;;;;;;;16.59;57.33;97349.16;4972081;28;20064;-82
2021/10/20 00:44:52;;;;;;;3.80;3.40;;;;;;;16.33;57.99;97338.06;4990592;28;20034;-83
2021/10/20 00:47:20;;;;;;;4.25;3.70;;;;;;;16.26;58.21;97338.41;4976669;28;20033;-82
2021/10/20 00:49:46;;;;;;;3.92;3.15;;;;;;;16.47;58.01;97337.16;4982581;28;20056;-82
2021/10/20 00:52:11;;;;;;;3.75;3.38;;;;;;;16.42;58.08;97339.84;4975178;28;20034;-82
2021/10/20 00:54:38;;;;;;;5.97;3.70;;;;;;;16.30;58.51;97339.44;4974829;28;20045;-83
2021/10/20 00:57:04;;;;;;;6.13;3.50;;;;;;;16.42;58.11;97334.56;4974826;28;20031;-82
2021/10/20 00:59:31;;;;;;;4.40;3.58;;;;;;;16.54;57.84;97333.41;4974918;28;20093;-82
2021/10/20 01:01:57;;;;;;;4.20;3.25;;;;;;;16.64;57.31;97341.97;4984519;28;20026;-82
2021/10/20 01:04:22;;;;;;;4.63;3.53;;;;;;;16.70;57.67;97336.66;4959416;28;20030;-82
2021/10/20 01:06:47;;;;;;;6.50;3.40;;;;;;;16.71;57.50;97320.63;4958376;28;20391;-82
2021/10/20 01:09:13;;;;;;;5.45;3.63;;;;;;;16.61;57.94;97326.75;4975025;28;20073;-82
2021/10/20 01:11:38;;;;;;;5.47;3.30;;;;;;;16.65;57.88;97327.75;4990608;28;20499;-82
2021/10/20 01:14:04;;;;;;;4.32;3.60;;;;;;;16.68;57.89;97323.78;4976828;28;20043;-83
2021/10/20 01:16:29;;;;;;;6.70;3.42;;;;;;;16.56;58.20;97326.81;4993598;28;20037;-82
2021/10/20 01:18:55;;;;;;;4.32;3.50;;;;;;;16.66;58.10;97320.66;5010213;28;20113;-82
2021/10/20 01:21:21;;;;;;;5.25;3.35;;;;;;;16.64;58.10;97318.31;4977398;28;20075;-81
2021/10/20 01:23:47;;;;;;;4.50;3.47;;;;;;;16.63;58.22;97319.38;4993786;28;20527;-82
2021/10/20 01:26:13;;;;;;;6.95;3.63;;;;;;;16.67;57.98;97307.25;4994221;28;20033;-82
2021/10/20 01:28:39;;;;;;;4.82;3.58;;;;;;;16.61;58.21;97305.72;4993841;28;20434;-82
2021/10/20 01:31:04;;;;;;;3.67;3.10;;;;;;;16.69;58.14;97301.72;4993263;28;20028;-82
2021/10/20 01:33:29;;;;;;;4.85;3.50;;;;;;;16.63;58.39;97297.56;4977775;28;20041;-83
2021/10/20 01:35:55;;;;;;;3.72;3.20;;;;;;;16.65;58.50;97287.53;4977236;28;20133;-82
2021/10/20 01:38:20;;;;;;;4.20;3.38;;;;;;;16.78;57.78;97286.88;4993702;28;20545;-82
2021/10/20 01:40:45;;;;;;;4.55;3.40;;;;;;;16.82;57.75;97279.97;4977137;28;20549;-82
2021/10/20 01:43:11;;;;;;;6.90;4.03;;;;;;;16.71;58.42;97275.13;4993709;28;20045;-82
2021/10/20 01:45:36;;;;;;;3.65;3.22;;;;;;;16.80;57.84;97276.84;4993357;28;20443;-82
2021/10/20 01:48:02;;;;;;;4.40;3.97;;;;;;;16.73;58.11;97273.78;4993983;28;20045;-82
2021/10/20 01:50:27;;;;;;;3.70;3.35;;;;;;;16.78;58.11;97259.81;4976894;28;20106;-82
2021/10/20 01:52:53;;;;;;;4.10;3.70;;;;;;;16.63;58.58;97253.66;4993659;28;20439;-82
2021/10/20 01:55:18;;;;;;;4.68;3.42;;;;;;;16.58;58.43;97256.34;4993554;28;20045;-82
2021/10/20 01:57:44;;;;;;;4.13;3.65;;;;;;;16.59;58.60;97252.66;4992668;28;20034;-82
2021/10/20 02:00:11;;;;;;;4.43;3.63;;;;;;;16.53;58.54;97251.13;4976631;28;20502;-82
2021/10/20 02:02:37;;;;;;;4.15;3.58;;;;;;;16.59;58.54;97251.88;4974602;28;20242;-82
2021/10/20 02:05:05;;;;;;;5.10;4.03;;;;;;;16.46;58.92;97248.84;4973937;28;20098;-82
2021/10/20 02:07:31;;;;;;;5.97;4.03;;;;;;;16.56;58.81;97245.31;4975538;28;20030;-82
2021/10/20 02:09:56;;;;;;;7.55;4.10;;;;;;;16.51;58.57;97229.63;4973598;28;20041;-83
2021/10/20 02:12:21;;;;;;;5.05;3.78;;;;;;;16.42;59.24;97233.94;4973757;28;20038;-83
2021/10/20 02:14:47;;;;;;;6.25;3.80;;;;;;;16.50;58.99;97224.63;4973694;28;20038;-82
2021/10/20 02:17:12;;;;;;;5.88;4.22;;;;;;;16.43;59.37;97217.09;4990477;28;20040;-82
2021/10/20 02:19:37;;;;;;;6.78;4.22;;;;;;;16.35;59.80;97212.44;5007026;28;20554;-82
2021/10/20 02:22:04;;;;;;;5.55;3.95;;;;;;;16.38;59.41;97223.22;4992964;28;20528;-82
2021/10/20 02:24:30;;;;;;;5.78;3.80;;;;;;;16.45;59.42;97215.75;4993267;28;20496;-80
2021/10/20 02:26:55;;;;;;;6.10;4.45;;;;;;;16.45;59.51;97207.88;4976429;28;20088;-82
2021/10/20 02:29:20;;;;;;;6.25;4.00;;;;;;;16.39;59.55;97209.00;4960350;28;20026;-82
2021/10/20 02:31:46;;;;;;;4.00;3.55;;;;;;;16.36;59.52;97206.13;4959304;28;20120;-83
2021/10/20 02:34:20;;;;;;;4.55;3.78;;;;;;;16.29;59.60;97202.00;4992928;28;20483;-82
2021/10/20 02:36:45;;;;;;;6.15;3.70;;;;;;;16.45;59.61;97201.81;4976276;28;20121;-82
2021/10/20 02:39:11;;;;;;;6.35;3.83;;;;;;;16.29;60.09;97199.38;4992503;28;20101;-82
2021/10/20 02:41:37;;;;;;;5.63;4.22;;;;;;;16.13;60.54;97198.00;4992091;28;20037;-82
2021/10/20 02:44:03;;;;;;;5.53;4.05;;;;;;;16.19;60.53;97194.22;4976143;28;20503;-82
2021/10/20 02:46:29;;;;;;;5.63;4.38;;;;;;;16.37;60.02;97189.31;4992373;28;20157;-81
2021/10/20 02:48:55;;;;;;;6.57;4.35;;;;;;;16.25;60.78;97190.50;4959503;28;20022;-82
2021/10/20 02:51:20;;;;;;;4.55;4.05;;;;;;;16.43;59.92;97177.66;4975998;28;20034;-82
2021/10/20 02:53:46;;;;;;;5.30;4.20;;;;;;;16.34;60.50;97180.16;4992267;28;20034;-82
2021/10/20 02:56:13;;;;;;;5.03;4.38;;;;;;;16.29;60.84;97182.81;4992290;28;20034;-82
2021/10/20 02:58:39;;;;;;;5.53;4.45;;;;;;;16.50;59.83;97185.22;4976473;28;20026;-82
2021/10/20 03:01:04;;;;;;;6.25;4.50;;;;;;;16.45;60.37;97178.16;5009014;28;20037;-82
2021/10/20 03:03:29;;;;;;;5.00;3.90;;;;;;;16.43;60.39;97175.03;4992025;28;20502;-82
2021/10/20 03:05:55;;;;;;;12.48;5.35;;;;;;;16.36;60.72;97180.63;4991984;28;20026;-82
2021/10/20 03:08:20;;;;;;;4.90;4.00;;;;;;;16.33;60.78;97177.78;5007907;28;20037;-82
2021/10/20 03:10:45;;;;;;;9.70;4.13;;;;;;;16.33;61.15;97169.91;4975647;28;20034;-82
2021/10/20 03:13:11;;;;;;;5.95;4.03;;;;;;;16.49;60.60;97179.19;4992189;28;20036;-81
2021/10/20 03:15:36;;;;;;;7.60;4.45;;;;;;;16.52;60.59;97175.19;4989243;28;20042;-82
2021/10/20 03:18:01;;;;;;;6.15;4.28;;;;;;;16.57;60.49;97183.81;4991747;28;20038;-81
2021/10/20 03:20:27;;;;;;;5.93;4.65;;;;;;;16.47;60.89;97179.47;4991597;28;20128;-81
2021/10/20 03:22:52;;;;;;;6.32;4.93;;;;;;;16.56;60.76;97182.25;4991955;28;20030;-82
2021/10/20 03:25:18;;;;;;;5.68;4.30;;;;;;;16.46;61.03;97177.88;4992205;28;20042;-82
2021/10/20 03:27:45;;;;;;;8.85;5.28;;;;;;;16.47;60.96;97178.69;4991801;28;20038;-82
2021/10/20 03:30:12;;;;;;;6.43;4.53;;;;;;;16.57;60.67;97186.44;4991431;28;20037;-82
2021/10/20 03:32:37;;;;;;;5.47;4.45;;;;;;;16.50;61.25;97182.59;4991837;28;20463;-82
2021/10/20 03:35:04;;;;;;;6.30;4.68;;;;;;;16.53;61.10;97180.16;4991487;28;20062;-82
2021/10/20 03:37:29;;;;;;;7.40;4.60;;;;;;;16.30;62.17;97181.78;4959701;28;20041;-82
2021/10/20 03:39:54;;;;;;;6.65;5.30;;;;;;;16.48;61.51;97182.88;4991324;28;20030;-82
2021/10/20 03:42:20;;;;;;;7.35;4.93;;;;;;;16.37;61.69;97182.22;4991116;28;20037;-82
2021/10/20 03:44:45;;;;;;;6.03;5.15;;;;;;;16.50;61.44;97172.84;5009114;28;20407;-82
2021/10/20 03:47:10;;;;;;;5.97;5.38;;;;;;;16.28;62.50;97168.91;5001023;28;20087;-82
2021/10/20 03:49:36;;;;;;;5.18;4.35;;;;;;;16.56;61.42;97171.72;4974975;28;20034;-82
2021/10/20 03:52:01;;;;;;;5.13;4.50;;;;;;;16.56;61.60;97152.56;4975074;28;20034;-82
2021/10/20 03:54:27;;;;;;;5.18;4.38;;;;;;;16.53;61.46;97151.25;4991567;28;20487;-81
2021/10/20 03:56:52;;;;;;;7.85;5.25;;;;;;;16.42;62.12;97157.72;4990980;28;20099;-82
2021/10/20 03:59:17;;;;;;;6.40;4.63;;;;;;;16.41;62.10;97161.41;4991273;28;20499;-81
2021/10/20 04:01:43;;;;;;;6.93;4.95;;;;;;;16.47;61.92;97173.44;4991051;28;20411;-82
2021/10/20 04:04:08;;;;;;;5.82;4.63;;;;;;;16.62;61.75;97172.44;4978816;28;20109;-82
2021/10/20 04:06:34;;;;;;;5.68;4.80;;;;;;;16.46;62.25;97169.22;4972228;28;20042;-82
2021/10/20 04:09:00;;;;;;;5.82;4.55;;;;;;;16.59;61.68;97158.03;4971626;28;20034;-82
2021/10/20 04:11:25;;;;;;;6.55;4.93;;;;;;;16.62;61.42;97154.03;4971520;28;20034;-82
2021/10/20 04:13:51;;;;;;;6.18;5.00;;;;;;;16.72;61.30;97156.53;4971759;28;20038;-82
2021/10/20 04:16:16;;;;;;;5.32;4.82;;;;;;;16.57;61.88;97140.97;4971563;28;20038;-82
2021/10/20 04:18:41;;;;;;;6.45;4.90;;;;;;;16.74;61.38;97135.22;4974466;28;20765;-82
2021/10/20 04:21:07;;;;;;;5.47;4.72;;;;;;;16.62;61.58;97141.69;4957481;28;20065;-82
2021/10/20 04:23:32;;;;;;;6.65;4.53;;;;;;;16.75;61.33;97142.03;4974785;28;20033;-82
2021/10/20 04:25:57;;;;;;;5.63;4.65;;;;;;;16.59;62.21;97147.50;4990946;28;20454;-82
2021/10/20 04:28:23;;;;;;;6.18;4.60;;;;;;;16.61;61.98;97136.72;4974852;28;20058;-82
2021/10/20 04:30:48;;;;;;;8.20;4.93;;;;;;;16.57;62.22;97148.84;4990673;28;20030;-81
2021/10/20 04:33:13;;;;;;;6.30;5.15;;;;;;;16.52;62.33;97143.66;4990157;28;20034;-82
2021/10/20 04:35:39;;;;;;;6.85;5.47;;;;;;;16.69;61.78;97143.97;5007107;28;20703;-82
2021/10/20 04:38:04;;;;;;;9.38;5.40;;;;;;;16.44;62.75;97134.56;5008544;28;20360;-82
2021/10/20 04:40:29;;;;;;;5.82;5.22;;;;;;;16.46;62.65;97140.31;4990486;28;20494;-81
2021/10/20 04:42:55;;;;;;;6.25;4.78;;;;;;;16.48;62.74;97140.81;4974676;28;20532;-82
2021/10/20 04:45:20;;;;;;;7.15;5.20;;;;;;;16.38;63.49;97146.19;4974456;28;20033;-82
2021/10/20 04:47:46;;;;;;;6.60;5.20;;;;;;;16.51;62.98;97137.63;4990659;28;20034;-81
2021/10/20 04:50:11;;;;;;;6.97;5.50;;;;;;;16.70;62.12;97129.75;4990270;28;20038;-81
2021/10/20 04:52:37;;;;;;;6.25;4.70;;;;;;;16.78;62.09;97131.72;4974495;28;20068;-81
2021/10/20 04:55:05;;;;;;;5.75;4.68;;;;;;;16.64;62.17;97123.78;4990736;28;20081;-81
2021/10/20 04:57:30;;;;;;;6.78;5.32;;;;;;;16.43;63.34;97128.53;4974697;28;20021;-82
2021/10/20 04:59:56;;;;;;;7.32;6.00;;;;;;;16.72;62.03;97134.72;4989402;28;20034;-81
2021/10/20 05:02:21;;;;;;;5.18;4.68;;;;;;;16.72;61.95;97130.22;4970171;28;20030;-80
2021/10/20 05:04:46;;;;;;;6.18;4.72;;;;;;;16.69;62.32;97130.03;4986466;28;20065;-80
2021/10/20 05:07:12;;;;;;;7.95;5.43;;;;;;;16.59;62.73;97125.72;4970214;28;20439;-81
2021/10/20 05:09:38;;;;;;;7.03;5.30;;;;;;;16.67;62.38;97125.03;4954193;28;20035;-81
2021/10/20 05:12:05;;;;;;;6.22;4.57;;;;;;;16.65;62.23;97125.31;4970304;28;20030;-81
2021/10/20 05:14:30;;;;;;;7.32;5.38;;;;;;;16.50;63.19;97120.28;4970451;28;20770;-80
2021/10/20 05:16:56;;;;;;;5.72;5.15;;;;;;;16.58;63.15;97122.28;4975277;28;20038;-80
2021/10/20 05:19:21;;;;;;;6.90;5.40;;;;;;;16.66;62.70;97107.72;4973262;28;20029;-80
2021/10/20 05:21:46;;;;;;;6.22;4.88;;;;;;;16.55;63.15;97114.94;4972916;28;20034;-81
2021/10/20 05:24:12;;;;;;;6.40;5.28;;;;;;;16.60;63.18;97099.09;4973204;28;20034;-81
2021/10/20 05:26:37;;;;;;;5.35;4.80;;;;;;;16.56;63.46;97092.88;4990391;28;20029;-81
2021/10/20 05:29:02;;;;;;;6.85;5.55;;;;;;;16.66;62.76;97082.22;4990080;28;20623;-80
2021/10/20 05:31:28;;;;;;;8.18;5.68;;;;;;;16.55;63.26;97072.91;4987149;28;20084;-81
2021/10/20 05:33:53;;;;;;;9.23;5.68;;;;;;;16.57;63.38;97078.69;4977723;28;20036;-80
2021/10/20 05:36:19;;;;;;;6.80;5.63;;;;;;;16.64;62.96;97079.09;4961325;28;20129;-81
2021/10/20 05:38:44;;;;;;;5.70;5.10;;;;;;;16.59;63.41;97076.53;4977723;28;20479;-81
2021/10/20 05:41:09;;;;;;;5.82;5.07;;;;;;;16.77;62.98;97084.69;4977053;28;20034;-81
2021/10/20 05:43:35;;;;;;;6.68;5.43;;;;;;;16.78;62.40;97070.47;5011411;28;20041;-80
2021/10/20 05:46:00;;;;;;;6.43;5.55;;;;;;;16.67;62.70;97078.53;4977277;28;20468;-81
2021/10/20 05:48:25;;;;;;;7.68;5.43;;;;;;;16.46;63.92;97077.25;4972651;28;20116;-80
2021/10/20 05:50:53;;;;;;;8.52;5.65;;;;;;;16.55;63.58;97088.66;4992292;28;20026;-81
2021/10/20 05:53:18;;;;;;;7.57;5.15;;;;;;;16.51;63.82;97076.41;4993544;28;20030;-80
2021/10/20 05:55:44;;;;;;;5.85;5.25;;;;;;;16.57;63.51;97081.31;4996380;28;20030;-81
2021/10/20 05:58:10;;;;;;;8.18;5.70;;;;;;;16.75;63.26;97084.97;4993688;28;20527;-80
2021/10/20 06:00:36;;;;;;;6.60;5.78;;;;;;;16.67;63.48;97085.59;4993234;28;20036;-81
2021/10/20 06:03:01;;;;;;;7.38;5.25;;;;;;;16.60;63.59;97082.56;4990604;28;20027;-81
2021/10/20 06:05:27;;;;;;;8.27;4.97;;;;;;;16.62;63.69;97083.06;4974234;28;20034;-81
2021/10/20 06:07:52;;;;;;;7.07;5.47;;;;;;;16.63;63.71;97066.22;4957393;28;20030;-81
2021/10/20 06:10:18;;;;;;;7.15;5.53;;;;;;;16.41;64.57;97064.19;4973674;28;20169;-81
2021/10/20 06:12:44;;;;;;;7.40;5.90;;;;;;;16.65;64.04;97059.59;4957670;28;20037;-80
2021/10/20 06:15:10;;;;;;;6.43;4.93;;;;;;;16.88;63.25;97054.56;4957387;28;20098;-81
2021/10/20 06:17:36;;;;;;;6.72;5.30;;;;;;;16.85;62.90;97034.09;4978180;28;20392;-81
2021/10/20 06:20:04;;;;;;;6.63;5.93;;;;;;;16.54;64.47;97042.44;4988862;28;20131;-80
2021/10/20 06:22:30;;;;;;;6.43;5.60;;;;;;;16.55;64.53;97041.34;4977002;28;20117;-81
2021/10/20 06:24:55;;;;;;;6.68;5.95;;;;;;;16.86;63.66;97040.91;4976841;28;20184;-81
2021/10/20 06:27:21;;;;;;;7.38;5.43;;;;;;;17.00;63.11;97044.38;4992501;28;20072;-81
2021/10/20 06:29:46;;;;;;;5.97;5.07;;;;;;;17.02;62.96;97021.19;4992398;28;20724;-80
2021/10/20 06:32:11;;;;;;;5.53;4.90;;;;;;;16.92;63.48;97031.09;5008835;28;20091;-80
2021/10/20 06:34:37;;;;;;;6.18;5.18;;;;;;;17.04;62.99;97023.53;4976330;28;20026;-81
2021/10/20 06:37:02;;;;;;;6.97;5.63;;;;;;;16.88;63.90;97024.84;4992332;28;20664;-81
2021/10/20 06:39:28;;;;;;;7.53;4.95;;;;;;;16.96;63.82;97022.34;4992777;28;20029;-80
2021/10/20 06:41:53;;;;;;;6.93;5.22;;;;;;;17.11;63.17;97025.78;4991939;28;20034;-80
2021/10/20 06:44:18;;;;;;;5.20;4.70;;;;;;;17.09;63.58;97027.94;4991816;28;20444;-81
2021/10/20 06:46:44;;;;;;;6.63;5.68;;;;;;;17.30;62.70;97023.06;4992683;28;20041;-81
2021/10/20 06:49:09;;;;;;;6.55;4.93;;;;;;;17.15;63.16;97022.28;4969987;28;20474;-81
2021/10/20 06:51:35;;;;;;;8.35;4.85;;;;;;;17.30;62.82;97021.22;5004688;28;20029;-81
2021/10/20 06:54:00;;;;;;;4.90;4.25;;;;;;;17.49;62.49;97017.72;4991917;28;20025;-82
2021/10/20 06:56:26;;;;;;;7.47;5.05;;;;;;;17.44;62.29;97009.91;4992318;28;20034;-81
2021/10/20 06:58:51;;;;;;;7.43;5.18;;;;;;;17.44;62.70;97009.91;5008417;28;20044;-81
2021/10/20 07:01:17;;;;;;;7.43;5.40;;;;;;;17.36;62.78;97000.88;4968912;28;20037;-80
2021/10/20 07:03:44;;;;;;;6.45;4.90;;;;;;;17.70;61.48;97008.38;4992055;28;20133;-81
2021/10/20 07:06:10;;;;;;;7.90;5.00;;;;;;;17.71;61.72;97017.03;5006488;28;20408;-81
2021/10/20 07:08:36;;;;;;;6.40;4.78;;;;;;;17.92;61.24;97020.06;5003403;28;20043;-81
2021/10/20 07:11:01;;;;;;;5.75;5.05;;;;;;;17.76;61.67;97014.28;4972128;28;20465;-82
2021/10/20 07:13:26;;;;;;;6.25;5.00;;;;;;;17.96;61.56;97024.44;4988606;28;20034;-81
2021/10/20 07:15:53;;;;;;;6.90;5.50;;;;;;;18.02;61.65;97027.75;4976238;28;20030;-81
2021/10/20 07:18:19;;;;;;;6.05;4.93;;;;;;;17.92;61.54;97025.31;5002080;28;20664;-82
2021/10/20 07:20:44;;;;;;;5.63;4.72;;;;;;;18.04;61.71;97011.63;4975564;28;20029;-82
2021/10/20 07:23:10;;;;;;;5.20;4.70;;;;;;;18.19;61.38;97011.31;4964934;28;20567;-81
2021/10/20 07:25:35;;;;;;;5.35;4.85;;;;;;;18.28;61.19;97017.44;4988270;28;20029;-81
2021/10/20 07:28:01;;;;;;;6.45;4.53;;;;;;;18.30;60.78;97019.75;4990832;28;20068;-81
2021/10/20 07:30:26;;;;;;;5.47;4.90;;;;;;;18.41;60.64;97010.56;4985115;28;20057;-81
2021/10/20 07:32:51;;;;;;;5.80;5.03;;;;;;;18.53;60.28;97026.63;4975293;28;20034;-81
2021/10/20 07:35:17;;;;;;;7.32;5.43;;;;;;;18.68;59.93;97024.72;4965350;28;20027;-82
2021/10/20 07:37:43;;;;;;;7.85;5.10;;;;;;;18.62;60.35;97028.53;4971865;28;20053;-81
2021/10/20 07:40:11;;;;;;;5.57;4.60;;;;;;;18.39;60.74;97028.53;4939449;28;20026;-81
2021/10/20 07:42:37;;;;;;;5.22;4.65;;;;;;;18.58;60.26;97030.22;4939790;28;20408;-81
2021/10/20 07:45:04;;;;;;;5.20;4.53;;;;;;;18.52;60.67;97016.38;4971644;28;20069;-82
2021/10/20 07:47:30;;;;;;;6.30;4.20;;;;;;;18.56;60.42;97016.53;4964919;28;20030;-81
2021/10/20 07:49:55;;;;;;;7.32;5.15;;;;;;;18.61;60.62;97021.69;4979538;28;20030;-81
2021/10/20 07:52:25;;;;;;;5.72;4.53;;;;;;;18.36;61.24;97002.00;5002505;28;20034;-82
2021/10/20 07:54:51;;;;;;;5.85;5.18;;;;;;;18.46;61.21;96996.47;4977597;28;20026;-81
2021/10/20 07:57:16;;;;;;;6.90;4.70;;;;;;;18.64;60.93;96986.81;4986718;28;20044;-81
2021/10/20 07:59:42;;;;;;;4.85;4.20;;;;;;;18.82;60.64;96983.25;4974347;28;20053;-81
2021/10/20 08:02:07;;;;;;;5.30;4.38;;;;;;;18.77;60.63;96972.78;4974553;28;20026;-82
2021/10/20 08:04:32;;;;;;;5.05;4.50;;;;;;;18.74;60.91;96968.09;4989384;28;20471;-81
2021/10/20 08:06:58;;;;;;;6.63;5.45;;;;;;;19.06;60.07;96953.09;4987841;28;20480;-81
2021/10/20 08:09:23;;;;;;;7.35;4.43;;;;;;;19.11;60.33;96936.31;4990503;28;20510;-81
2021/10/20 08:11:48;;;;;;;4.95;4.40;;;;;;;19.25;59.85;96940.41;4971252;28;20497;-82
2021/10/20 08:14:14;;;;;;;5.35;4.57;;;;;;;19.27;59.89;96938.25;4982066;28;20101;-81
2021/10/20 08:16:39;;;;;;;4.70;4.20;;;;;;;19.12;59.73;96922.06;4987080;28;20525;-82
2021/10/20 08:19:05;;;;;;;5.03;4.53;;;;;;;19.09;59.72;96918.19;4974590;28;20396;-80
2021/10/20 08:21:30;;;;;;;4.78;4.32;;;;;;;19.11;59.83;96936.31;4988554;28;20139;-81
2021/10/20 08:23:56;;;;;;;4.55;4.13;;;;;;;19.24;59.66;96930.97;4975349;28;20032;-81
2021/10/20 08:26:22;;;;;;;5.30;4.43;;;;;;;19.33;59.53;96922.25;4991074;28;20757;-81
2021/10/20 08:28:47;;;;;;;7.93;4.50;;;;;;;19.42;59.51;96937.03;4990617;28;20044;-81
2021/10/20 08:31:13;;;;;;;4.38;3.97;;;;;;;19.28;59.93;96929.25;4990451;28;20495;-82
2021/10/20 08:33:38;;;;;;;4.55;4.10;;;;;;;19.26;59.31;96939.34;4974612;28;20096;-82
2021/10/20 08:36:04;;;;;;;4.38;3.95;;;;;;;19.28;60.01;96931.13;4990829;28;20034;-81
2021/10/20 08:38:29;;;;;;;4.68;3.88;;;;;;;19.23;59.53;96934.66;4974605;28;20034;-81
2021/10/20 08:40:55;;;;;;;6.82;3.75;;;;;;;19.39;59.75;96932.38;4974124;28;20033;-81
2021/10/20 08:43:21;;;;;;;4.95;3.70;;;;;;;19.21;60.42;96930.75;4990791;28;20084;-81
2021/10/20 08:45:48;;;;;;;4.97;4.43;;;;;;;19.31;59.35;96925.19;4974711;28;20554;-81
2021/10/20 08:48:14;;;;;;;4.35;3.95;;;;;;;19.36;59.77;96926.94;4990332;28;20602;-82
2021/10/20 08:50:39;;;;;;;5.50;3.90;;;;;;;19.50;59.58;96917.03;4974005;28;20024;-81
2021/10/20 08:53:06;;;;;;;6.35;4.03;;;;;;;19.69;59.44;96918.59;4974551;28;20033;-81
2021/10/20 08:55:32;;;;;;;5.82;3.88;;;;;;;19.58;59.51;96913.59;4968139;28;20096;-81
2021/10/20 08:57:58;;;;;;;4.97;4.30;;;;;;;19.63;59.60;96918.75;4983416;28;20574;-81
2021/10/20 09:00:24;;;;;;;6.47;4.07;;;;;;;19.61;59.77;96920.91;4989836;28;20025;-81
2021/10/20 09:02:50;;;;;;;5.15;3.78;;;;;;;19.76;59.07;96918.97;4990263;28;20034;-81
2021/10/20 09:05:21;;;;;;;4.90;4.30;;;;;;;19.51;59.28;96907.25;5006724;28;20022;-81
2021/10/20 09:07:49;;;;;;;4.57;4.13;;;;;;;19.73;59.39;96912.38;5009610;28;20041;-81
2021/10/20 09:10:15;;;;;;;4.60;4.18;;;;;;;19.74;59.70;96915.81;4969267;28;20036;-82
2021/10/20 09:12:41;;;;;;;4.03;3.63;;;;;;;19.54;59.30;96907.41;4977748;28;20069;-82
2021/10/20 09:15:09;;;;;;;5.45;4.47;;;;;;;19.42;60.33;96894.03;4974345;28;20049;-82
2021/10/20 09:17:50;;;;;;;5.30;4.15;;;;;;;19.47;60.04;96891.25;4976432;28;20696;-80
2021/10/20 09:20:24;;;;;;;5.32;3.95;;;;;;;19.84;59.55;96881.19;4974094;28;20619;-82
2021/10/20 09:23:06;;;;;;;4.53;3.80;;;;;;;20.00;58.74;96876.97;4958059;28;20096;-81
2021/10/20 09:25:37;;;;;;;4.75;3.80;;;;;;;20.24;58.48;96870.41;4991659;28;20046;-81
2021/10/20 09:28:04;;;;;;;4.72;3.67;;;;;;;20.57;57.61;96878.56;4974440;28;20042;-81
2021/10/20 09:30:30;;;;;;;4.90;4.10;;;;;;;20.45;57.48;96870.50;4973954;28;20045;-81
2021/10/20 09:32:59;;;;;;;4.80;4.40;;;;;;;20.59;57.68;96871.06;4974377;28;20038;-81
2021/10/20 09:35:28;;;;;;;4.70;4.15;;;;;;;20.46;57.25;96858.84;4973758;28;20067;-82
2021/10/20 09:37:58;;;;;;;5.15;3.55;;;;;;;20.54;57.98;96868.59;4974164;28;20428;-81
2021/10/20 09:40:24;;;;;;;5.97;4.03;;;;;;;20.27;58.85;96845.22;4974067;28;20084;-82
2021/10/20 09:42:51;;;;;;;5.78;4.00;;;;;;;20.72;57.01;96845.56;4974108;28;20042;-82
2021/10/20 09:45:20;;;;;;;4.90;3.35;;;;;;;20.79;56.88;96854.88;4973696;28;20439;-82
2021/10/20 09:47:46;;;;;;;4.90;3.53;;;;;;;20.72;57.82;96855.38;4974016;28;20399;-81
2021/10/20 09:50:12;;;;;;;6.05;4.40;;;;;;;20.74;57.49;96851.28;4973093;28;20121;-81
2021/10/20 09:52:46;;;;;;;4.57;3.90;;;;;;;20.65;56.99;96857.72;4974992;28;20080;-82
2021/10/20 09:55:23;;;;;;;5.20;3.92;;;;;;;20.52;56.85;96854.94;4989700;28;20045;-81
2021/10/20 09:57:49;;;;;;;4.38;3.88;;;;;;;20.73;57.50;96852.41;4991169;28;20332;-81
2021/10/20 10:00:14;;;;;;;6.95;3.88;;;;;;;20.90;56.67;96846.22;4989060;28;20113;-82
2021/10/20 10:02:40;;;;;;;4.10;3.70;;;;;;;21.13;56.95;96843.31;5005433;28;20030;-80
2021/10/20 10:05:07;;;;;;;4.30;3.90;;;;;;;21.08;56.33;96844.28;4993075;28;20088;-81
2021/10/20 10:07:33;;;;;;;4.05;3.30;;;;;;;21.21;56.29;96847.75;4993356;28;20060;-82
2021/10/20 10:09:58;;;;;;;4.40;4.00;;;;;;;21.21;56.26;96836.41;5009478;28;20506;-81
2021/10/20 10:12:27;;;;;;;4.85;3.47;;;;;;;21.04;56.23;96832.00;4992974;28;20033;-81
2021/10/20 10:14:58;;;;;;;4.10;3.70;;;;;;;21.24;55.74;96835.78;4992621;28;20064;-81
2021/10/20 10:17:24;;;;;;;4.20;3.67;;;;;;;21.26;55.99;96833.56;5008914;28;20544;-82
2021/10/20 10:19:50;;;;;;;3.83;3.42;;;;;;;21.21;56.08;96834.53;4991335;28;20070;-81
2021/10/20 10:22:26;;;;;;;4.28;3.78;;;;;;;21.19;56.70;96841.25;4989967;28;20072;-82
2021/10/20 10:24:52;;;;;;;5.00;4.05;;;;;;;21.03;56.58;96830.47;4976495;28;20125;-82
2021/10/20 10:27:18;;;;;;;4.13;3.72;;;;;;;21.02;56.09;96829.66;4959854;28;20125;-82
2021/10/20 10:30:00;;;;;;;4.22;3.83;;;;;;;20.76;56.66;96824.53;4991854;28;20032;-81
2021/10/20 10:32:27;;;;;;;11.05;3.70;;;;;;;20.69;57.11;96832.19;4992520;28;20443;-82
2021/10/20 10:34:53;;;;;;;6.15;4.53;;;;;;;20.86;56.55;96831.31;4992751;28;20044;-81
2021/10/20 10:37:27;;;;;;;6.38;3.80;;;;;;;20.78;56.72;96830.25;4960122;28;20117;-82
2021/10/20 10:39:53;;;;;;;4.07;3.75;;;;;;;20.62;56.82;96827.38;4991868;28;20499;-81
2021/10/20 10:42:18;;;;;;;4.88;3.50;;;;;;;20.48;57.13;96810.94;4959536;28;20030;-82
2021/10/20 10:44:47;;;;;;;5.35;4.25;;;;;;;20.50;57.49;96808.75;4992099;28;20029;-81
2021/10/20 10:47:47;;;;;;;4.03;3.65;;;;;;;20.29;58.09;96804.16;4975921;28;20040;-80
2021/10/20 10:50:11;;;;;;;4.07;3.53;;;;;;;20.32;57.54;96819.38;4992676;28;20048;-81
2021/10/20 10:52:41;;;;;;;5.63;3.55;;;;;;;20.48;57.37;96816.22;4975990;28;20492;-81
2021/10/20 10:55:14;;;;;;;4.20;3.80;;;;;;;20.35;57.72;96813.44;4976311;28;20395;-81
2021/10/20 10:57:56;;;;;;;3.97;3.58;;;;;;;20.27;57.95;96822.22;4975741;28;20065;-81
2021/10/20 11:00:21;;;;;;;5.47;4.05;;;;;;;20.54;57.16;96825.53;4990944;28;20562;-82
2021/10/20 11:02:54;;;;;;;4.75;3.38;;;;;;;20.43;57.78;96819.81;4985716;28;20073;-81
2021/10/20 11:05:27;;;;;;;4.43;4.03;;;;;;;20.22;58.33;96814.44;4989783;28;20117;-81
2021/10/20 11:08:02;;;;;;;4.30;3.80;;;;;;;20.32;58.17;96811.47;4972441;28;20108;-81
2021/10/20 11:10:32;;;;;;;5.28;4.25;;;;;;;20.54;57.83;96802.47;4988046;28;20041;-82
2021/10/20 11:12:58;;;;;;;4.38;3.80;;;;;;;20.59;57.76;96804.19;4972095;28;20116;-81
2021/10/20 11:15:26;;;;;;;4.78;4.30;;;;;;;20.76;57.10;96803.34;4972111;28;20520;-81
2021/10/20 11:17:52;;;;;;;4.20;3.58;;;;;;;20.52;57.15;96809.97;4971909;28;20038;-81
2021/10/20 11:20:19;;;;;;;4.20;3.33;;;;;;;20.48;57.62;96797.72;4988407;28;20408;-80
2021/10/20 11:22:49;;;;;;;4.88;3.88;;;;;;;20.47;57.24;96794.28;4991409;28;20029;-81
2021/10/20 11:25:15;;;;;;;4.10;3.78;;;;;;;20.40;57.61;96780.78;4975082;28;20026;-81
2021/10/20 11:27:52;;;;;;;4.03;3.65;;;;;;;19.99;58.33;96780.28;4991592;28;20430;-81
2021/10/20 11:30:23;;;;;;;4.28;3.78;;;;;;;20.39;58.08;96768.63;4958399;28;20029;-81